Time;durP1;ratioP1;P1;durP2;ratioP2;P2;SDS_P1;SDS_P2;PMS_P1;PMS_P2;Temp;Humidity;BMP_temperature;BMP_pressure;BME280_temperature;BME280_humidity;BME280_pressure;Samples;Min_cycle;Max_cycle;Signal;HPM_P1;HPM_P2
2022/08/14 00:01:11;;;;;;;7.60;4.35;;;;;;;19.76;84.25;98288.34;5065991;28;20044;-61
2022/08/14 00:03:55;;;;;;;7.10;4.38;;;;;;;19.64;85.39;98285.25;5033590;28;20084;-61
2022/08/14 00:06:41;;;;;;;5.50;4.20;;;;;;;19.60;85.13;98276.00;5046476;28;20068;-61
2022/08/14 00:09:25;;;;;;;7.35;4.80;;;;;;;19.49;87.17;98282.53;5033337;28;20037;-61
2022/08/14 00:12:10;;;;;;;7.63;5.03;;;;;;;19.43;86.52;98286.72;5040438;28;20068;-61
2022/08/14 00:14:55;;;;;;;5.85;4.30;;;;;;;19.35;87.59;98276.97;5035127;28;20037;-61
2022/08/14 00:17:40;;;;;;;5.70;4.80;;;;;;;19.36;88.75;98273.28;5032801;28;20071;-61
2022/08/14 00:20:28;;;;;;;6.75;4.70;;;;;;;19.18;90.23;98273.53;5059921;28;20384;-61
2022/08/14 00:23:15;;;;;;;8.35;5.00;;;;;;;19.17;89.96;98272.75;5038344;28;20044;-62
2022/08/14 00:26:00;;;;;;;7.28;4.13;;;;;;;19.25;88.54;98266.56;5036728;28;20095;-60
2022/08/14 00:28:45;;;;;;;6.50;4.43;;;;;;;19.32;89.32;98266.69;5032085;28;20063;-61
2022/08/14 00:31:30;;;;;;;7.70;5.05;;;;;;;19.23;90.40;98273.88;5025086;28;20040;-61
2022/08/14 00:34:14;;;;;;;7.63;4.68;;;;;;;19.00;92.30;98269.28;5036169;28;20044;-61
2022/08/14 00:36:59;;;;;;;7.72;5.57;;;;;;;19.03;92.42;98262.81;5035589;28;20041;-61
2022/08/14 00:39:44;;;;;;;9.32;5.30;;;;;;;18.99;93.02;98253.53;5038817;28;20065;-60
2022/08/14 00:42:28;;;;;;;8.23;5.45;;;;;;;19.00;93.12;98258.66;5037841;28;21030;-61
2022/08/14 00:45:14;;;;;;;7.68;5.15;;;;;;;19.07;92.59;98251.69;5032256;28;20033;-60
2022/08/14 00:47:59;;;;;;;7.25;5.18;;;;;;;19.04;92.71;98259.16;5032816;28;20067;-60
2022/08/14 00:50:44;;;;;;;6.97;4.80;;;;;;;19.08;92.07;98255.97;5031962;28;20091;-60
2022/08/14 00:53:28;;;;;;;6.93;4.57;;;;;;;19.11;90.42;98262.78;5032569;28;20061;-60
2022/08/14 00:56:14;;;;;;;6.65;4.65;;;;;;;19.16;91.21;98254.34;5041251;28;20392;-60
2022/08/14 00:58:59;;;;;;;9.00;5.28;;;;;;;19.04;92.20;98260.00;5032654;28;20145;-61
2022/08/14 01:01:44;;;;;;;8.50;5.50;;;;;;;18.97;92.45;98261.66;5032140;28;20068;-60
2022/08/14 01:04:32;;;;;;;7.60;4.95;;;;;;;19.01;92.65;98262.16;5032419;28;20048;-60
2022/08/14 01:07:21;;;;;;;8.25;4.93;;;;;;;19.04;92.48;98272.44;5032195;28;20037;-60
2022/08/14 01:10:05;;;;;;;8.55;5.20;;;;;;;18.95;93.31;98263.66;5034639;28;20037;-60
2022/08/14 01:12:50;;;;;;;6.63;5.05;;;;;;;18.92;92.17;98264.84;5031276;28;20057;-61
2022/08/14 01:15:35;;;;;;;7.25;4.40;;;;;;;18.90;93.06;98260.72;5040785;28;20067;-60
2022/08/14 01:21:32;;;;;;;6.32;4.13;;;;;;;18.99;92.70;98267.63;5043516;28;20053;-61
2022/08/14 01:24:17;;;;;;;6.53;4.63;;;;;;;18.97;93.12;98264.31;5030733;28;20049;-61
2022/08/14 01:27:04;;;;;;;8.73;5.10;;;;;;;18.92;93.50;98261.34;5031732;28;20044;-62
2022/08/14 01:29:51;;;;;;;7.25;4.97;;;;;;;18.71;95.16;98266.25;5032004;28;20103;-61
2022/08/14 01:32:37;;;;;;;5.80;4.30;;;;;;;18.73;93.88;98266.06;5033680;28;20040;-61
2022/08/14 01:35:22;;;;;;;7.22;4.38;;;;;;;18.96;92.87;98271.44;5040514;28;20119;-61
2022/08/14 01:38:08;;;;;;;5.63;4.38;;;;;;;19.00;93.05;98271.13;5042893;28;20133;-62
2022/08/14 01:40:53;;;;;;;6.38;4.38;;;;;;;18.85;93.81;98271.81;5050939;28;20034;-61
2022/08/14 01:44:00;;;;;;;8.45;5.28;;;;;;;18.82;94.59;98267.69;5031666;28;20037;-61
2022/08/14 01:46:45;;;;;;;6.10;4.65;;;;;;;18.92;93.18;98264.84;5047873;28;20063;-60
2022/08/14 01:49:30;;;;;;;6.35;4.70;;;;;;;18.91;93.71;98268.50;5030574;28;20519;-61
2022/08/14 01:52:15;;;;;;;7.90;4.13;;;;;;;18.74;94.71;98267.72;5058131;28;20466;-61
2022/08/14 01:55:00;;;;;;;7.20;4.47;;;;;;;18.73;95.18;98274.03;5033720;28;20037;-62
2022/08/14 01:57:45;;;;;;;6.20;4.40;;;;;;;18.60;96.55;98269.25;5039654;28;20405;-61
2022/08/14 02:00:30;;;;;;;8.07;4.85;;;;;;;18.57;97.49;98264.28;5041986;28;20045;-60
2022/08/14 02:03:15;;;;;;;5.88;4.43;;;;;;;18.62;96.61;98261.13;5031316;28;20473;-61
2022/08/14 02:06:01;;;;;;;5.93;4.20;;;;;;;18.78;94.62;98260.25;5031840;28;20049;-61
2022/08/14 02:08:47;;;;;;;7.13;4.88;;;;;;;18.78;94.52;98262.91;5032064;28;20072;-61
2022/08/14 02:11:33;;;;;;;6.10;4.63;;;;;;;18.62;96.70;98264.63;5031146;28;20509;-61
2022/08/14 02:14:17;;;;;;;8.20;4.90;;;;;;;18.55;96.93;98271.59;5030314;28;20048;-62
2022/08/14 02:17:08;;;;;;;7.47;4.82;;;;;;;18.56;97.61;98273.22;5044257;28;20047;-62
2022/08/14 02:19:53;;;;;;;6.53;4.60;;;;;;;18.69;95.87;98264.75;5031499;28;20057;-61
2022/08/14 02:22:39;;;;;;;7.05;4.85;;;;;;;18.64;95.74;98267.91;5036854;28;20037;-61
2022/08/14 02:25:24;;;;;;;6.65;4.55;;;;;;;18.73;95.30;98259.94;5030074;28;20676;-61
2022/08/14 02:28:11;;;;;;;7.72;4.32;;;;;;;18.68;94.84;98260.44;5049056;28;20040;-61
2022/08/14 02:30:59;;;;;;;6.50;4.47;;;;;;;18.77;94.62;98259.41;5044378;28;20045;-61
2022/08/14 02:33:45;;;;;;;5.25;3.95;;;;;;;18.84;92.81;98268.34;5040356;28;20440;-62
2022/08/14 02:36:30;;;;;;;5.63;4.32;;;;;;;18.70;93.62;98269.06;5038343;28;20125;-61
2022/08/14 02:39:15;;;;;;;4.38;3.42;;;;;;;18.85;90.76;98269.16;5032443;28;20400;-61
2022/08/14 02:42:00;;;;;;;5.22;4.22;;;;;;;18.67;94.73;98264.91;5029959;28;20399;-61
2022/08/14 02:44:45;;;;;;;7.05;4.57;;;;;;;18.59;96.15;98263.13;5030048;28;20077;-61
2022/08/14 02:47:30;;;;;;;6.22;3.97;;;;;;;18.69;92.57;98264.75;5044193;28;20084;-62
2022/08/14 02:50:16;;;;;;;6.70;4.68;;;;;;;18.62;94.97;98269.09;5047433;28;20167;-61
2022/08/14 02:53:00;;;;;;;4.95;3.83;;;;;;;18.69;94.08;98272.69;5045341;28;20033;-61
2022/08/14 02:55:46;;;;;;;5.97;4.47;;;;;;;18.82;92.43;98270.34;5048646;28;20411;-61
2022/08/14 02:58:36;;;;;;;6.70;4.32;;;;;;;18.83;92.90;98269.34;5043971;28;20489;-61
2022/08/14 03:01:23;;;;;;;6.72;5.22;;;;;;;18.70;94.98;98263.75;5042721;28;20148;-62
2022/08/14 03:04:09;;;;;;;6.72;4.90;;;;;;;18.54;96.45;98260.13;5043820;28;20044;-61
2022/08/14 03:06:55;;;;;;;6.95;4.68;;;;;;;18.58;96.08;98263.28;5047446;28;20388;-62
2022/08/14 03:09:40;;;;;;;7.57;5.07;;;;;;;18.75;94.26;98263.25;5051354;28;20077;-61
2022/08/14 03:12:25;;;;;;;6.63;4.53;;;;;;;18.76;93.31;98267.53;5041324;28;20391;-62
2022/08/14 03:15:13;;;;;;;6.93;4.80;;;;;;;18.75;94.18;98271.22;5037460;28;20046;-61
2022/08/14 03:17:58;;;;;;;6.40;4.70;;;;;;;18.83;93.66;98274.66;5034446;28;20120;-60
2022/08/14 03:20:43;;;;;;;7.05;4.72;;;;;;;18.81;92.91;98267.88;5033616;28;20469;-60
2022/08/14 03:23:32;;;;;;;9.48;5.95;;;;;;;18.78;95.35;98270.88;5051161;28;20079;-60
2022/08/14 03:26:24;;;;;;;7.72;5.90;;;;;;;18.59;97.44;98271.06;5034221;28;20440;-61
2022/08/14 03:29:11;;;;;;;7.90;6.28;;;;;;;18.56;97.96;98275.88;5037082;28;20037;-61
2022/08/14 03:31:57;;;;;;;7.00;5.10;;;;;;;18.69;96.35;98267.41;5039374;28;20092;-61
2022/08/14 03:34:42;;;;;;;8.05;4.15;;;;;;;18.74;95.98;98273.03;5045205;28;20121;-61
2022/08/14 03:37:27;;;;;;;7.65;5.35;;;;;;;18.68;96.22;98271.06;5042517;28;20037;-61
2022/08/14 03:40:12;;;;;;;8.75;5.65;;;;;;;18.64;96.93;98270.56;5034887;28;20045;-61
2022/08/14 03:42:57;;;;;;;8.50;5.20;;;;;;;18.68;96.63;98266.59;5033662;28;20065;-61
2022/08/14 03:45:43;;;;;;;9.38;6.28;;;;;;;18.58;97.30;98265.94;5033088;28;20491;-61
2022/08/14 03:48:28;;;;;;;9.57;6.47;;;;;;;18.47;98.59;98270.59;5033793;28;20354;-60
2022/08/14 03:51:13;;;;;;;6.93;4.85;;;;;;;18.43;98.83;98268.44;5033727;28;20046;-61
2022/08/14 03:54:01;;;;;;;8.68;6.20;;;;;;;18.52;98.94;98266.63;5032654;28;20045;-60
2022/08/14 03:56:45;;;;;;;7.32;5.60;;;;;;;18.61;96.76;98264.75;5037081;28;20040;-61
2022/08/14 03:59:31;;;;;;;10.07;5.57;;;;;;;18.53;97.25;98263.81;5034727;28;20041;-61
2022/08/14 04:02:16;;;;;;;8.27;4.45;;;;;;;18.60;96.40;98271.91;5047414;28;20132;-61
2022/08/14 04:05:00;;;;;;;9.05;5.70;;;;;;;18.68;96.59;98265.75;5040867;28;20064;-61
2022/08/14 04:07:46;;;;;;;8.82;6.00;;;;;;;18.70;96.83;98269.88;5036247;28;20087;-61
2022/08/14 04:10:31;;;;;;;9.02;6.57;;;;;;;18.69;96.63;98268.22;5033510;28;20065;-60
2022/08/14 04:13:17;;;;;;;10.20;5.60;;;;;;;18.75;96.35;98265.91;5032147;28;20048;-61
2022/08/14 04:16:07;;;;;;;8.20;6.10;;;;;;;18.69;97.47;98270.03;5033115;28;20038;-61
2022/08/14 04:18:55;;;;;;;9.15;5.88;;;;;;;18.71;96.92;98266.25;5034474;28;20499;-61
2022/08/14 04:21:40;;;;;;;10.02;6.80;;;;;;;18.65;98.07;98268.75;5044983;28;20500;-61
2022/08/14 04:24:25;;;;;;;8.75;6.28;;;;;;;18.68;97.70;98255.97;5049240;28;20384;-62
2022/08/14 04:27:10;;;;;;;8.07;5.82;;;;;;;18.66;97.84;98250.00;5033034;28;20065;-60
2022/08/14 04:29:56;;;;;;;12.10;6.97;;;;;;;18.74;97.84;98262.41;5031618;28;20041;-61
2022/08/14 04:32:41;;;;;;;8.80;6.57;;;;;;;18.73;98.08;98252.81;5033263;28;20370;-61
2022/08/14 04:35:25;;;;;;;7.53;5.47;;;;;;;18.79;96.41;98243.31;5047507;28;20408;-60
2022/08/14 04:44:16;;;;;;;8.88;5.82;;;;;;;18.86;95.96;98243.47;5049234;28;20431;-61
2022/08/14 04:50:05;;;;;;;9.10;6.75;;;;;;;19.07;95.11;98253.50;5032591;28;20052;-61
2022/08/14 04:52:50;;;;;;;8.05;5.90;;;;;;;19.19;93.56;98252.13;5032486;28;20120;-61
2022/08/14 04:55:35;;;;;;;7.60;5.70;;;;;;;19.36;91.18;98246.75;5032681;28;20042;-61
2022/08/14 04:58:26;;;;;;;8.15;5.78;;;;;;;19.47;90.50;98239.38;5079185;28;20097;-61
2022/08/14 05:01:11;;;;;;;9.00;5.90;;;;;;;19.56;90.12;98233.84;5038367;28;20538;-62
2022/08/14 05:03:56;;;;;;;9.10;6.10;;;;;;;19.48;91.37;98233.06;5032395;28;20388;-61
2022/08/14 05:06:41;;;;;;;9.25;6.65;;;;;;;19.53;90.59;98234.22;5039418;28;20037;-61
2022/08/14 05:09:26;;;;;;;6.13;4.63;;;;;;;19.57;89.51;98238.16;5072412;28;20090;-61
2022/08/14 05:12:11;;;;;;;9.35;6.55;;;;;;;19.61;89.38;98237.78;5038228;28;20160;-61
2022/08/14 05:14:56;;;;;;;8.82;6.38;;;;;;;19.64;89.58;98237.44;5037108;28;20472;-61
2022/08/14 05:17:43;;;;;;;10.55;5.85;;;;;;;19.49;91.36;98242.72;5036215;28;20048;-61
2022/08/14 05:20:29;;;;;;;9.88;6.28;;;;;;;19.55;92.05;98247.31;5031989;28;20159;-61
2022/08/14 05:23:17;;;;;;;11.82;7.50;;;;;;;19.23;94.32;98238.50;5030808;28;20493;-62
2022/08/14 05:26:04;;;;;;;10.20;7.15;;;;;;;19.24;94.07;98249.00;5030805;28;20477;-62
2022/08/14 05:28:49;;;;;;;10.13;6.97;;;;;;;19.65;91.62;98245.22;5031428;28;20400;-61
2022/08/14 05:31:38;;;;;;;8.85;6.50;;;;;;;19.91;89.47;98237.91;5031773;28;20128;-61
2022/08/14 05:34:28;;;;;;;10.05;7.05;;;;;;;20.02;89.59;98245.47;5039878;28;20086;-61
2022/08/14 05:37:13;;;;;;;10.50;7.57;;;;;;;19.89;90.52;98242.56;5045062;28;20047;-61
2022/08/14 05:39:58;;;;;;;11.45;7.78;;;;;;;20.03;89.83;98238.31;5039571;28;20115;-61
2022/08/14 05:42:43;;;;;;;12.07;7.65;;;;;;;20.30;87.70;98236.09;5031682;28;20387;-61
2022/08/14 05:45:27;;;;;;;9.57;6.78;;;;;;;20.60;84.83;98240.59;5031618;28;20081;-61
2022/08/14 05:48:17;;;;;;;9.57;7.15;;;;;;;20.64;85.74;98240.06;5044470;28;20046;-61
2022/08/14 05:51:02;;;;;;;11.90;7.93;;;;;;;20.85;84.54;98229.66;5031186;28;20048;-62
2022/08/14 05:53:47;;;;;;;9.20;6.30;;;;;;;20.79;83.23;98234.72;5031390;28;20048;-61
2022/08/14 05:56:33;;;;;;;8.43;6.35;;;;;;;21.03;83.34;98231.97;5032732;28;20095;-61
2022/08/14 05:59:17;;;;;;;9.90;6.75;;;;;;;21.24;82.20;98231.19;5038883;28;20041;-61
2022/08/14 06:02:02;;;;;;;12.52;7.32;;;;;;;21.32;82.02;98224.94;5037288;28;20484;-62
2022/08/14 06:04:47;;;;;;;10.73;6.85;;;;;;;21.32;82.02;98226.75;5034477;28;20388;-62
2022/08/14 06:07:35;;;;;;;10.70;7.65;;;;;;;21.34;81.42;98233.56;5031299;28;20045;-61
2022/08/14 06:10:20;;;;;;;12.88;8.43;;;;;;;21.37;81.97;98233.19;5031337;28;20125;-61
2022/08/14 06:13:05;;;;;;;9.98;7.97;;;;;;;22.19;78.47;98234.75;5035667;28;20052;-60
2022/08/14 06:15:49;;;;;;;11.35;8.27;;;;;;;22.55;76.58;98234.78;5036795;28;20046;-60
2022/08/14 06:18:35;;;;;;;15.07;8.55;;;;;;;22.50;76.25;98225.53;5030185;28;20072;-60
2022/08/14 06:21:21;;;;;;;11.43;7.53;;;;;;;22.55;75.57;98234.78;5029859;28;20037;-61
2022/08/14 06:24:06;;;;;;;14.68;9.77;;;;;;;22.55;76.44;98232.09;5030157;28;20075;-61
2022/08/14 06:26:51;;;;;;;9.52;6.35;;;;;;;23.33;72.72;98217.69;5030323;28;20033;-61
2022/08/14 06:29:37;;;;;;;13.13;8.52;;;;;;;23.22;72.90;98229.78;5030123;28;20052;-61
2022/08/14 06:32:22;;;;;;;11.88;7.70;;;;;;;23.45;71.19;98225.94;5030043;28;20487;-61
2022/08/14 06:35:08;;;;;;;12.50;8.07;;;;;;;23.58;70.45;98227.84;5042987;28;20037;-64
2022/08/14 06:37:57;;;;;;;12.68;8.23;;;;;;;23.71;69.94;98218.19;5035672;28;20049;-61
2022/08/14 06:40:42;;;;;;;11.95;7.88;;;;;;;23.94;69.49;98216.94;5036186;28;20044;-61
2022/08/14 06:43:27;;;;;;;12.73;8.45;;;;;;;24.10;68.60;98226.41;5037016;28;20109;-61
2022/08/14 06:46:11;;;;;;;9.90;7.28;;;;;;;24.30;67.18;98225.59;5061636;28;20112;-61
2022/08/14 06:48:56;;;;;;;10.80;7.28;;;;;;;24.50;66.19;98219.38;5037917;28;20103;-61
2022/08/14 06:51:45;;;;;;;10.93;7.65;;;;;;;24.58;66.25;98224.50;5033566;28;20061;-60
2022/08/14 06:54:30;;;;;;;12.15;8.00;;;;;;;24.05;68.19;98223.53;5034287;28;20326;-61
2022/08/14 06:57:14;;;;;;;12.25;8.63;;;;;;;23.89;68.64;98220.25;5040981;28;20037;-61
2022/08/14 06:59:59;;;;;;;15.15;8.88;;;;;;;23.34;71.36;98227.31;5036484;28;20061;-62
2022/08/14 07:05:50;;;;;;;10.90;6.95;;;;;;;24.79;65.84;98219.91;5034436;28;20045;-61
2022/08/14 07:08:35;;;;;;;9.60;7.05;;;;;;;25.09;64.19;98220.22;5034116;28;20068;-62
2022/08/14 07:11:21;;;;;;;11.82;7.93;;;;;;;25.16;64.61;98220.19;5032863;28;20512;-62
2022/08/14 07:14:06;;;;;;;11.80;7.93;;;;;;;25.09;63.93;98222.91;5034646;28;20077;-62
2022/08/14 07:16:51;;;;;;;11.93;7.68;;;;;;;25.39;63.38;98224.19;5034461;28;20056;-62
2022/08/14 07:19:36;;;;;;;10.90;7.55;;;;;;;26.25;60.39;98219.41;5038122;28;20420;-61
2022/08/14 07:22:20;;;;;;;12.77;7.60;;;;;;;26.28;59.88;98213.59;5034214;28;20053;-62
2022/08/14 07:25:06;;;;;;;12.23;8.55;;;;;;;26.03;60.41;98209.91;5034067;28;20049;-61
2022/08/14 07:27:52;;;;;;;11.98;8.45;;;;;;;26.54;58.98;98217.91;5034243;28;20041;-61
2022/08/14 07:30:38;;;;;;;10.05;7.38;;;;;;;26.29;59.12;98217.94;5034661;28;20034;-60
2022/08/14 07:33:25;;;;;;;10.93;7.07;;;;;;;26.98;57.39;98222.38;5046651;28;20072;-61
2022/08/14 07:36:12;;;;;;;10.20;7.22;;;;;;;26.90;56.93;98215.44;5028073;28;20123;-62
2022/08/14 07:38:59;;;;;;;10.13;6.95;;;;;;;26.63;57.42;98218.47;5039579;28;20048;-61
2022/08/14 07:41:44;;;;;;;9.32;6.90;;;;;;;26.91;57.32;98224.31;5037469;28;20067;-61
2022/08/14 07:44:28;;;;;;;10.15;7.53;;;;;;;27.45;55.68;98226.34;5053011;28;20395;-62
2022/08/14 07:47:14;;;;;;;11.20;7.35;;;;;;;27.53;55.04;98227.88;5041931;28;20123;-61
2022/08/14 07:50:06;;;;;;;8.32;6.05;;;;;;;27.43;54.92;98226.56;5070771;28;20115;-62
2022/08/14 07:52:51;;;;;;;10.07;6.82;;;;;;;28.55;51.82;98221.66;5032012;28;20065;-62
2022/08/14 07:55:45;;;;;;;8.63;6.88;;;;;;;28.44;51.91;98217.09;5032670;28;20119;-60
2022/08/14 07:58:32;;;;;;;9.75;6.88;;;;;;;28.81;51.12;98219.50;5047435;28;20459;-63
2022/08/14 08:01:18;;;;;;;10.23;6.22;;;;;;;28.19;52.37;98218.97;5033168;28;20041;-61
2022/08/14 08:04:03;;;;;;;8.70;6.47;;;;;;;27.85;53.04;98227.63;5033497;28;20041;-61
2022/08/14 08:06:47;;;;;;;9.68;5.90;;;;;;;27.93;53.29;98229.13;5032093;28;20061;-60
2022/08/14 08:09:35;;;;;;;8.13;6.30;;;;;;;28.54;51.97;98228.09;5032159;28;20065;-63
2022/08/14 08:12:20;;;;;;;9.82;6.20;;;;;;;29.05;50.11;98229.41;5033064;28;20045;-61
2022/08/14 08:15:05;;;;;;;8.38;6.45;;;;;;;28.73;49.95;98222.56;5033313;28;20056;-61
2022/08/14 08:17:50;;;;;;;9.90;6.07;;;;;;;29.02;49.86;98222.63;5033428;28;20451;-60
2022/08/14 08:20:43;;;;;;;8.63;5.97;;;;;;;29.24;48.84;98217.38;5032949;28;20065;-62
2022/08/14 08:23:31;;;;;;;7.45;5.78;;;;;;;30.06;46.67;98213.63;5043430;28;20427;-61
2022/08/14 08:26:18;;;;;;;8.18;5.60;;;;;;;30.71;45.41;98215.03;5032189;28;20482;-63
2022/08/14 08:29:03;;;;;;;8.30;5.75;;;;;;;29.22;48.20;98218.66;5032912;28;20042;-62
2022/08/14 08:31:49;;;;;;;8.18;5.82;;;;;;;30.14;47.03;98209.69;5032791;28;20071;-62
2022/08/14 08:34:45;;;;;;;6.75;5.43;;;;;;;31.29;43.41;98211.91;5028029;28;20056;-61
2022/08/14 08:37:34;;;;;;;8.00;6.00;;;;;;;30.33;45.58;98207.53;5032794;28;20037;-61
2022/08/14 08:40:26;;;;;;;7.05;4.65;;;;;;;31.54;42.59;98210.56;5031422;28;20036;-62
2022/08/14 08:43:24;;;;;;;6.43;5.05;;;;;;;31.75;42.29;98202.59;5032339;28;20535;-61
2022/08/14 08:46:20;;;;;;;9.38;5.00;;;;;;;30.52;43.46;98207.22;5032438;28;20033;-64
2022/08/14 08:49:05;;;;;;;8.15;4.68;;;;;;;28.80;47.90;98207.09;5032469;28;20365;-61
2022/08/14 08:52:03;;;;;;;7.53;5.40;;;;;;;28.29;49.91;98207.59;5032778;28;20037;-62
2022/08/14 08:54:53;;;;;;;10.07;6.88;;;;;;;29.20;49.79;98213.53;5043063;28;20159;-62
2022/08/14 08:57:38;;;;;;;8.07;4.87;;;;;;;29.49;46.76;98216.19;5043068;28;20069;-62
2022/08/14 09:00:23;;;;;;;6.68;4.35;;;;;;;30.03;48.02;98207.91;5032360;28;20034;-62
2022/08/14 09:03:11;;;;;;;6.43;4.55;;;;;;;30.04;46.02;98212.22;5031079;28;20049;-63
2022/08/14 09:06:02;;;;;;;7.05;4.97;;;;;;;29.36;47.19;98214.63;5031450;28;20048;-62
2022/08/14 09:08:47;;;;;;;6.45;5.03;;;;;;;29.39;46.83;98213.31;5045183;28;20046;-62
2022/08/14 09:11:32;;;;;;;7.10;5.00;;;;;;;28.94;47.82;98214.91;5030119;28;20048;-62
2022/08/14 09:14:16;;;;;;;7.15;4.82;;;;;;;29.32;47.50;98215.34;5031805;28;20116;-61
2022/08/14 09:17:04;;;;;;;7.07;4.70;;;;;;;29.51;46.63;98215.94;5032350;28;20060;-62
2022/08/14 09:19:49;;;;;;;8.00;4.88;;;;;;;29.13;48.21;98212.88;5044461;28;20108;-62
2022/08/14 09:22:34;;;;;;;6.45;4.80;;;;;;;29.48;46.84;98205.63;5031558;28;20152;-62
2022/08/14 09:25:19;;;;;;;8.05;5.00;;;;;;;28.74;48.44;98208.03;5030945;28;20038;-62
2022/08/14 09:28:04;;;;;;;7.22;5.15;;;;;;;27.27;51.79;98217.25;5032114;28;20046;-62
2022/08/14 09:30:55;;;;;;;5.78;4.10;;;;;;;27.05;54.03;98214.25;5038720;28;20051;-62
2022/08/14 09:34:11;;;;;;;7.85;4.78;;;;;;;27.69;52.11;98214.81;5038508;28;20048;-61
2022/08/14 09:37:26;;;;;;;5.60;4.50;;;;;;;27.90;51.14;98222.34;5033350;28;20033;-61
2022/08/14 09:40:19;;;;;;;7.07;4.20;;;;;;;27.86;51.63;98223.06;5044270;28;20362;-62
2022/08/14 09:43:39;;;;;;;5.75;4.03;;;;;;;27.38;52.72;98229.13;5036634;28;20041;-62
2022/08/14 09:46:26;;;;;;;;;;;;;;;27.24;53.04;98223.09;5039429;28;20039;-62
2022/08/14 09:49:12;;;;;;;5.82;4.15;;;;;;;27.36;52.48;98225.00;5047475;28;19924;-62
2022/08/14 09:52:16;;;;;;;6.03;4.57;;;;;;;27.10;52.16;98224.31;5033556;28;20033;-63
2022/08/14 09:55:00;;;;;;;5.25;4.03;;;;;;;27.23;52.71;98218.78;5031537;28;20037;-63
2022/08/14 09:57:46;;;;;;;6.32;4.47;;;;;;;27.40;51.74;98218.13;5043264;28;20037;-61
2022/08/14 10:00:50;;;;;;;7.90;4.07;;;;;;;27.34;52.18;98213.69;5030636;28;20030;-61
2022/08/14 10:03:55;;;;;;;6.07;4.50;;;;;;;27.61;51.92;98213.28;5064162;28;20068;-61
2022/08/14 10:06:44;;;;;;;6.68;4.13;;;;;;;27.29;52.10;98207.09;5032683;28;20088;-61
2022/08/14 10:09:28;;;;;;;5.97;4.20;;;;;;;27.75;49.18;98198.59;5046859;28;20056;-62
2022/08/14 10:12:13;;;;;;;5.68;4.13;;;;;;;27.89;49.51;98199.19;5024950;28;20433;-62
2022/08/14 10:14:58;;;;;;;5.22;4.10;;;;;;;27.70;50.58;98193.09;5037466;28;20041;-61
2022/08/14 10:17:42;;;;;;;5.78;4.07;;;;;;;27.76;50.30;98191.34;5038038;28;20047;-61
2022/08/14 10:20:32;;;;;;;5.65;3.65;;;;;;;27.92;49.98;98187.94;5056647;28;20042;-62
2022/08/14 10:23:19;;;;;;;;;;;;;;;27.76;50.98;98184.06;5035699;28;20053;-62
2022/08/14 10:26:06;;;;;;;9.25;4.63;;;;;;;28.45;48.60;98178.38;5035172;28;19917;-62
2022/08/14 10:28:52;;;;;;;5.57;3.65;;;;;;;30.63;44.67;98172.25;5035241;28;20049;-62
2022/08/14 10:31:37;;;;;;;6.05;4.15;;;;;;;31.74;41.40;98175.78;5037749;28;20033;-62
2022/08/14 10:34:31;;;;;;;5.95;4.38;;;;;;;31.11;42.10;98172.53;5043960;28;20143;-63
2022/08/14 10:37:17;;;;;;;4.60;3.53;;;;;;;31.21;41.73;98169.94;5051076;28;20041;-63
2022/08/14 10:40:02;;;;;;;8.05;4.10;;;;;;;30.05;44.39;98168.78;5035712;28;20112;-61
2022/08/14 10:42:47;;;;;;;6.68;4.38;;;;;;;28.84;46.84;98167.81;5020726;28;20049;-61
2022/08/14 10:45:33;;;;;;;5.57;3.50;;;;;;;29.06;47.92;98163.66;5044620;28;20048;-63
2022/08/14 10:48:18;;;;;;;5.75;4.63;;;;;;;28.57;48.09;98163.00;5034770;28;20038;-61
2022/08/14 10:51:03;;;;;;;6.93;4.10;;;;;;;27.98;48.81;98167.38;5033710;28;20103;-63
2022/08/14 10:53:53;;;;;;;5.32;3.50;;;;;;;29.47;47.13;98160.88;5033791;28;20065;-63
2022/08/14 10:56:38;;;;;;;4.57;3.60;;;;;;;31.27;42.34;98159.16;5036044;28;20477;-63
2022/08/14 10:59:23;;;;;;;5.63;3.60;;;;;;;31.86;40.38;98162.88;5053208;28;20045;-62
2022/08/14 11:02:23;;;;;;;6.47;3.97;;;;;;;30.18;43.37;98156.81;5034724;28;20113;-61
2022/08/14 11:05:17;;;;;;;6.78;4.03;;;;;;;29.89;43.92;98162.34;5046755;28;20527;-61
2022/08/14 11:08:01;;;;;;;4.45;3.10;;;;;;;31.29;41.06;98147.00;5034555;28;20047;-61
2022/08/14 11:10:53;;;;;;;5.50;3.95;;;;;;;32.51;38.22;98145.63;5042416;28;20098;-61
2022/08/14 11:13:45;;;;;;;5.28;3.78;;;;;;;32.25;39.16;98136.59;5036529;28;20034;-61
2022/08/14 11:16:31;;;;;;;5.07;3.70;;;;;;;32.54;38.54;98142.44;5038145;28;20050;-63
2022/08/14 11:19:18;;;;;;;4.63;3.40;;;;;;;32.39;38.97;98142.34;5034071;28;20069;-63
2022/08/14 11:22:05;;;;;;;4.65;3.50;;;;;;;32.80;36.76;98139.81;5034426;28;20062;-65
2022/08/14 11:24:50;;;;;;;6.18;3.67;;;;;;;33.51;37.22;98143.94;5042350;28;20508;-63
2022/08/14 11:27:37;;;;;;;4.72;3.65;;;;;;;33.63;36.63;98147.22;5059997;28;20399;-63
2022/08/14 11:30:26;;;;;;;5.30;3.20;;;;;;;33.89;36.41;98128.19;5044000;28;20391;-63
2022/08/14 11:33:11;;;;;;;7.22;3.45;;;;;;;33.42;37.49;98136.38;5033696;28;20040;-61
2022/08/14 11:36:01;;;;;;;5.15;3.50;;;;;;;33.48;37.41;98133.63;5034245;28;20041;-61
2022/08/14 11:38:45;;;;;;;4.85;3.58;;;;;;;34.10;35.66;98135.44;5030300;28;20479;-63
2022/08/14 11:41:33;;;;;;;4.65;3.35;;;;;;;33.45;37.08;98132.28;5043242;28;20044;-62
2022/08/14 11:44:18;;;;;;;5.20;3.28;;;;;;;33.55;37.42;98124.16;5041888;28;20044;-62
2022/08/14 11:47:04;;;;;;;5.05;3.45;;;;;;;34.39;35.86;98123.97;5024983;28;20053;-62
2022/08/14 11:49:49;;;;;;;5.00;3.38;;;;;;;34.92;34.96;98119.06;5033777;28;20048;-62
2022/08/14 11:52:36;;;;;;;4.32;3.22;;;;;;;34.21;36.31;98120.78;5033686;28;20040;-61
2022/08/14 11:55:21;;;;;;;4.00;3.10;;;;;;;34.15;35.30;98119.97;5060776;28;20049;-61
2022/08/14 11:58:09;;;;;;;5.18;3.50;;;;;;;35.08;33.06;98112.44;5073987;28;20110;-64
2022/08/14 12:01:00;;;;;;;4.68;3.42;;;;;;;34.56;34.57;98117.34;5043409;28;20086;-62
2022/08/14 12:03:46;;;;;;;4.20;3.15;;;;;;;34.60;34.26;98123.88;5045544;28;20045;-61
2022/08/14 12:06:32;;;;;;;4.65;3.33;;;;;;;33.35;35.60;98124.13;5018625;28;20476;-61
2022/08/14 12:09:30;;;;;;;4.03;3.20;;;;;;;33.92;35.11;98115.94;5033415;28;20112;-62
2022/08/14 12:12:17;;;;;;;4.65;3.17;;;;;;;33.31;35.81;98119.25;5037421;28;20041;-64
2022/08/14 12:15:04;;;;;;;7.03;3.53;;;;;;;33.74;35.95;98120.88;5041131;28;20045;-63
2022/08/14 12:17:49;;;;;;;4.93;3.40;;;;;;;34.75;34.26;98110.22;5046874;28;20041;-62
2022/08/14 12:20:36;;;;;;;6.60;3.33;;;;;;;34.26;35.03;98112.59;5028843;28;20049;-65
2022/08/14 12:23:25;;;;;;;6.22;3.55;;;;;;;34.48;34.56;98113.31;5039324;28;20042;-63
2022/08/14 12:26:16;;;;;;;4.40;3.00;;;;;;;33.76;34.69;98110.56;5033138;28;20045;-63
2022/08/14 12:29:10;;;;;;;4.40;2.95;;;;;;;34.63;34.19;98107.00;5070505;28;20064;-63
2022/08/14 12:32:02;;;;;;;3.85;3.00;;;;;;;34.78;33.58;98111.56;5037914;28;20035;-64
2022/08/14 12:34:53;;;;;;;4.05;3.03;;;;;;;34.81;33.86;98110.19;5045121;28;20041;-64
2022/08/14 12:37:50;;;;;;;3.95;3.00;;;;;;;35.62;33.23;98114.44;5035316;28;20034;-63
2022/08/14 12:40:49;;;;;;;4.82;3.25;;;;;;;35.48;31.69;98115.09;5043419;28;20156;-61
2022/08/14 12:43:50;;;;;;;6.60;3.30;;;;;;;34.77;32.70;98116.19;5033672;28;20112;-62
2022/08/14 12:46:40;;;;;;;4.22;3.05;;;;;;;34.48;33.10;98106.00;5067186;28;20041;-62
2022/08/14 12:49:24;;;;;;;4.72;2.78;;;;;;;34.33;33.83;98106.88;5047375;28;20545;-63
2022/08/14 12:52:10;;;;;;;3.75;3.08;;;;;;;34.78;32.86;98103.41;5047378;28;20076;-62
2022/08/14 12:55:09;;;;;;;3.42;2.70;;;;;;;34.42;33.34;98093.53;5045659;28;20034;-62
2022/08/14 12:57:57;;;;;;;3.78;2.78;;;;;;;34.35;33.85;98091.13;5047602;28;20040;-63
2022/08/14 13:00:51;;;;;;;4.97;2.92;;;;;;;34.68;32.73;98085.22;5042374;28;20053;-63
2022/08/14 13:03:36;;;;;;;3.75;2.70;;;;;;;33.94;33.72;98091.22;5020617;28;20037;-62
2022/08/14 13:06:25;;;;;;;4.53;3.40;;;;;;;34.70;32.83;98082.25;5059174;28;20045;-61
2022/08/14 13:09:26;;;;;;;4.63;2.55;;;;;;;34.41;33.29;98091.88;5037696;28;20041;-63
2022/08/14 13:12:19;;;;;;;5.88;3.17;;;;;;;34.36;33.54;98078.31;5038970;28;20037;-64
2022/08/14 13:15:06;;;;;;;3.35;2.47;;;;;;;34.40;33.20;98076.69;5032266;28;20042;-62
2022/08/14 13:17:55;;;;;;;3.92;2.80;;;;;;;33.80;33.86;98078.25;5032036;28;20038;-62
2022/08/14 13:20:44;;;;;;;4.45;2.67;;;;;;;34.00;33.76;98073.81;5058654;28;20045;-62